createdAt,value
2019-06-26T00:00:09.885Z,22.20
2019-06-26T00:02:38.303Z,22.00
2019-06-26T00:05:07.783Z,21.80
2019-06-26T00:07:36.461Z,21.80
2019-06-26T00:10:06.501Z,21.70
2019-06-26T00:12:35.058Z,21.80
2019-06-26T00:15:05.274Z,21.70
2019-06-26T00:20:01.788Z,21.80
2019-06-26T00:22:30.280Z,21.80
2019-06-26T00:24:58.853Z,21.80
2019-06-26T00:27:27.373Z,21.80
2019-06-26T00:29:55.776Z,21.90
2019-06-26T00:34:52.560Z,21.90
2019-06-26T00:37:20.960Z,21.90
2019-06-26T00:39:49.372Z,21.90
2019-06-26T00:42:17.822Z,21.90
2019-06-26T00:44:46.213Z,21.90
2019-06-26T00:47:14.617Z,21.90
2019-06-26T00:49:43.026Z,21.70
2019-06-26T00:57:07.581Z,21.50
2019-06-26T00:59:36.053Z,21.40
2019-06-26T01:02:04.593Z,21.30
2019-06-26T01:04:34.644Z,21.20
2019-06-26T01:07:03.045Z,21.20
2019-06-26T01:09:31.549Z,21.30
2019-06-26T01:11:59.954Z,21.30
2019-06-26T01:14:28.370Z,21.30
2019-06-26T01:16:56.765Z,21.40
2019-06-26T01:19:25.210Z,21.40
2019-06-26T01:21:53.613Z,21.30
2019-06-26T01:24:34.558Z,21.20
2019-06-26T01:27:02.993Z,21.10
2019-06-26T01:29:32.706Z,21.00
2019-06-26T01:32:01.362Z,20.90
2019-06-26T01:34:29.942Z,20.80
2019-06-26T01:36:58.344Z,20.80
2019-06-26T01:41:54.989Z,20.70
2019-06-26T01:44:23.397Z,20.70
2019-06-26T01:46:51.797Z,20.70
2019-06-26T01:49:20.216Z,20.70
2019-06-26T01:51:48.612Z,20.70
2019-06-26T01:54:17.109Z,20.60
2019-06-26T01:59:13.594Z,20.60
2019-06-26T02:04:10.187Z,20.50
2019-06-26T02:06:38.585Z,20.50
2019-06-26T02:09:07.049Z,20.50
2019-06-26T02:11:35.473Z,20.40
2019-06-26T02:14:04.153Z,20.40
2019-06-26T02:16:32.557Z,20.30
2019-06-26T02:21:30.771Z,20.30
2019-06-26T02:26:27.249Z,20.20
2019-06-26T02:28:55.659Z,20.20
2019-06-26T02:31:24.100Z,20.20
2019-06-26T02:33:52.642Z,20.10
2019-06-26T02:36:21.196Z,20.10
2019-06-26T02:38:49.607Z,20.00
2019-06-26T02:41:18.087Z,20.00
2019-06-26T02:43:46.490Z,19.90
2019-06-26T02:46:14.897Z,19.90
2019-06-26T02:48:43.298Z,19.90
2019-06-26T02:51:11.709Z,19.80
2019-06-26T02:53:40.126Z,19.90
2019-06-26T02:56:08.522Z,19.80
2019-06-26T02:58:36.922Z,19.90
2019-06-26T03:01:05.346Z,20.00
2019-06-26T03:04:04.342Z,20.10
2019-06-26T03:06:32.777Z,20.10
2019-06-26T03:09:01.174Z,20.10
2019-06-26T03:11:29.584Z,20.10
2019-06-26T03:13:57.974Z,20.00
2019-06-26T03:16:26.386Z,20.00
2019-06-26T03:18:54.780Z,20.00
2019-06-26T03:23:51.312Z,20.00
2019-06-26T03:26:19.747Z,20.00
2019-06-26T03:28:48.165Z,20.00
2019-06-26T03:31:16.578Z,20.00
2019-06-26T03:36:13.088Z,19.90
2019-06-26T03:38:41.487Z,19.90
2019-06-26T03:43:57.304Z,19.80
2019-06-26T03:46:25.717Z,19.80
2019-06-26T03:48:54.125Z,19.70
2019-06-26T03:51:22.556Z,19.70
2019-06-26T03:53:50.985Z,19.70
2019-06-26T03:56:19.386Z,19.70
2019-06-26T03:58:47.894Z,19.70
2019-06-26T04:01:16.305Z,19.60
2019-06-26T04:03:44.776Z,19.50
2019-06-26T04:06:13.314Z,19.50
2019-06-26T04:08:41.897Z,19.60
2019-06-26T04:11:10.302Z,19.60
2019-06-26T04:13:38.768Z,19.60
2019-06-26T04:16:07.177Z,19.60
2019-06-26T04:18:35.664Z,19.60
2019-06-26T04:21:23.425Z,19.70
2019-06-26T04:26:19.970Z,19.90
2019-06-26T04:28:48.369Z,19.90
2019-06-26T04:31:16.781Z,19.80
2019-06-26T04:33:45.181Z,19.90
2019-06-26T04:38:41.661Z,20.00
2019-06-26T04:41:10.488Z,20.10
2019-06-26T04:43:38.872Z,20.10
2019-06-26T04:46:07.277Z,20.00
2019-06-26T04:48:35.788Z,20.00
2019-06-26T04:51:04.634Z,20.00
2019-06-26T04:53:33.120Z,20.00
2019-06-26T04:56:01.519Z,20.10
2019-06-26T04:58:29.974Z,20.20
2019-06-26T05:00:58.384Z,20.30
2019-06-26T05:03:26.795Z,20.40
2019-06-26T05:05:55.193Z,20.40
2019-06-26T05:10:51.669Z,20.50
2019-06-26T05:13:20.141Z,20.50
2019-06-26T05:18:16.637Z,20.70
2019-06-26T05:20:45.084Z,20.90
2019-06-26T05:23:13.504Z,21.10
2019-06-26T05:25:42.445Z,21.20
2019-06-26T05:28:10.867Z,21.30
2019-06-26T05:33:07.412Z,21.40
2019-06-26T05:35:35.807Z,21.50
2019-06-26T05:38:04.308Z,21.60
2019-06-26T05:43:00.824Z,21.90
2019-06-26T05:50:25.496Z,22.20
2019-06-26T05:52:53.904Z,22.40
2019-06-26T05:55:22.322Z,22.60
2019-06-26T05:57:50.732Z,22.80
2019-06-26T06:00:20.998Z,22.90
2019-06-26T06:02:49.433Z,23.10
2019-06-26T06:05:18.127Z,23.30
2019-06-26T06:07:46.516Z,23.50
2019-06-26T06:10:16.068Z,23.70
2019-06-26T06:12:44.535Z,23.90
2019-06-26T06:15:14.694Z,24.20
2019-06-26T06:17:43.093Z,24.60
2019-06-26T06:20:13.671Z,25.00
2019-06-26T06:22:42.124Z,25.40
2019-06-26T06:25:11.165Z,25.80
2019-06-26T06:27:39.563Z,26.30
2019-06-26T06:30:08.416Z,26.70
2019-06-26T06:32:36.818Z,27.20
2019-06-26T06:35:06.964Z,27.60
2019-06-26T06:37:35.365Z,27.90
2019-06-26T06:40:08.522Z,28.30
2019-06-26T06:42:36.929Z,28.50
2019-06-26T06:45:07.893Z,28.70
2019-06-26T06:47:36.283Z,28.90
2019-06-26T06:50:06.864Z,29.20
2019-06-26T06:52:35.364Z,29.50
2019-06-26T06:55:06.253Z,29.90
2019-06-26T06:57:34.656Z,30.20
2019-06-26T07:00:03.133Z,30.50
2019-06-26T07:02:31.557Z,31.00
2019-06-26T07:07:28.032Z,31.60
2019-06-26T07:09:56.487Z,31.80
2019-06-26T07:12:24.884Z,32.00
2019-06-26T07:14:53.305Z,32.10
2019-06-26T07:17:21.704Z,32.50
2019-06-26T07:19:50.145Z,32.70
2019-06-26T07:22:18.579Z,32.90
2019-06-26T07:24:46.987Z,33.20
2019-06-26T07:27:15.404Z,33.50
2019-06-26T07:29:43.805Z,33.70
2019-06-26T07:32:12.210Z,33.80
2019-06-26T07:37:08.802Z,33.90
2019-06-26T07:39:37.197Z,34.10
2019-06-26T07:42:05.772Z,34.30
2019-06-26T07:44:34.225Z,34.50
2019-06-26T07:47:02.660Z,34.60
2019-06-26T07:49:31.060Z,34.50
2019-06-26T07:51:59.473Z,34.20
2019-06-26T07:54:27.873Z,34.10
2019-06-26T07:56:56.294Z,34.10
2019-06-26T07:59:24.777Z,34.30
2019-06-26T08:04:21.242Z,34.60
2019-06-26T08:06:49.648Z,34.50
2019-06-26T08:09:18.116Z,34.60
2019-06-26T08:11:46.542Z,34.70
2019-06-26T08:14:14.973Z,34.80
2019-06-26T08:16:43.504Z,35.00
2019-06-26T08:19:11.908Z,35.20
2019-06-26T08:21:40.316Z,35.20
2019-06-26T08:24:08.716Z,35.30
2019-06-26T08:26:37.155Z,35.50
2019-06-26T08:29:05.627Z,35.50
2019-06-26T08:31:34.028Z,35.50
2019-06-26T08:34:02.433Z,35.50
2019-06-26T08:38:59.101Z,35.70
2019-06-26T08:41:27.524Z,35.80
2019-06-26T08:46:24.097Z,35.80
2019-06-26T08:48:52.483Z,35.90
2019-06-26T08:51:22.145Z,35.80
2019-06-26T08:53:50.702Z,35.80
2019-06-26T08:56:19.504Z,35.90
2019-06-26T08:58:47.920Z,36.10
2019-06-26T09:01:16.313Z,36.40
2019-06-26T09:03:44.736Z,36.60
2019-06-26T09:06:13.212Z,36.60
2019-06-26T09:08:41.614Z,36.60
2019-06-26T09:11:10.041Z,36.60
2019-06-26T09:16:06.577Z,36.80
2019-06-26T09:18:36.269Z,37.00
2019-06-26T09:23:33.081Z,36.90
2019-06-26T09:26:01.501Z,37.00
2019-06-26T09:30:57.974Z,37.10
2019-06-26T09:33:26.398Z,37.10
2019-06-26T09:40:51.311Z,36.70
2019-06-26T09:43:19.985Z,37.10
2019-06-26T09:46:07.736Z,37.30
2019-06-26T09:48:51.586Z,37.30
2019-06-26T09:51:25.612Z,37.40
2019-06-26T09:53:54.024Z,37.40
2019-06-26T09:56:22.496Z,37.60
2019-06-26T09:58:50.901Z,37.60
2019-06-26T10:01:19.302Z,37.70
2019-06-26T10:03:47.709Z,37.60
2019-06-26T10:08:44.244Z,37.00
2019-06-26T10:11:13.108Z,37.00
2019-06-26T10:16:09.602Z,37.20
2019-06-26T10:18:38.033Z,37.20
2019-06-26T10:21:25.839Z,37.10
2019-06-26T10:23:54.240Z,37.10
2019-06-26T10:26:22.642Z,37.30
2019-06-26T10:31:19.148Z,37.00
2019-06-26T10:36:15.816Z,36.80
2019-06-26T10:38:44.224Z,36.80
2019-06-26T10:41:12.627Z,36.90
2019-06-26T10:43:41.040Z,37.10
2019-06-26T10:46:09.477Z,37.00
2019-06-26T10:48:37.937Z,36.90
2019-06-26T10:51:06.321Z,36.60
2019-06-26T10:53:34.708Z,36.20
2019-06-26T10:58:31.269Z,34.90
2019-06-26T11:00:59.689Z,34.50
2019-06-26T11:03:28.085Z,34.00
2019-06-26T11:05:56.494Z,33.80
2019-06-26T11:08:24.893Z,33.70
2019-06-26T11:10:53.295Z,33.70
2019-06-26T11:13:21.696Z,33.70
2019-06-26T11:18:18.415Z,33.30
2019-06-26T11:20:46.824Z,33.20
2019-06-26T11:23:34.560Z,33.30
2019-06-26T11:26:02.971Z,33.30
2019-06-26T11:28:31.370Z,33.30
2019-06-26T11:30:59.820Z,33.20
2019-06-26T11:33:28.316Z,33.20
2019-06-26T11:35:56.949Z,33.30
2019-06-26T11:38:25.348Z,33.20
2019-06-26T11:40:53.767Z,33.20
2019-06-26T11:43:22.170Z,33.30
2019-06-26T11:45:50.588Z,33.30
2019-06-26T11:48:18.988Z,33.20
2019-06-26T11:50:47.417Z,33.20
2019-06-26T11:55:44.138Z,33.10
2019-06-26T11:58:12.529Z,33.10
2019-06-26T12:03:13.211Z,33.10
2019-06-26T12:05:40.643Z,33.10
2019-06-26T12:08:09.088Z,33.10
2019-06-26T12:10:37.668Z,33.10
2019-06-26T12:13:06.068Z,33.20
2019-06-26T12:15:34.473Z,33.20
2019-06-26T12:18:02.879Z,33.20
2019-06-26T12:20:31.289Z,33.00
2019-06-26T12:22:59.729Z,33.00
2019-06-26T12:25:28.188Z,33.00
2019-06-26T12:27:56.585Z,32.90
2019-06-26T12:30:25.647Z,32.90
2019-06-26T12:33:02.790Z,33.00
2019-06-26T12:35:24.177Z,32.90
2019-06-26T12:37:52.646Z,33.00
2019-06-26T12:40:21.129Z,33.00
2019-06-26T12:42:49.544Z,33.00
2019-06-26T12:45:18.982Z,32.90
2019-06-26T12:47:47.404Z,33.00
2019-06-26T12:50:34.137Z,33.00
2019-06-26T12:52:49.024Z,32.80
2019-06-26T12:55:17.484Z,32.80
2019-06-26T12:57:45.905Z,32.80
2019-06-26T13:00:16.052Z,32.80
2019-06-26T13:02:44.468Z,32.80
2019-06-26T13:05:14.197Z,32.80
2019-06-26T13:10:11.652Z,32.70
2019-06-26T13:12:40.066Z,32.70
2019-06-26T13:15:10.004Z,32.70
2019-06-26T13:20:10.677Z,32.70
2019-06-26T13:22:39.283Z,32.80
2019-06-26T13:25:09.137Z,32.80
2019-06-26T13:27:37.553Z,32.70
2019-06-26T13:30:07.786Z,32.70
2019-06-26T13:32:36.199Z,32.80
2019-06-26T13:35:05.940Z,32.70
2019-06-26T13:37:34.350Z,32.80
2019-06-26T13:40:02.782Z,32.80
2019-06-26T13:42:31.229Z,32.80
2019-06-26T13:44:59.628Z,32.80
2019-06-26T13:47:28.053Z,32.80
2019-06-26T13:49:56.459Z,32.90
2019-06-26T13:52:24.954Z,32.90
2019-06-26T13:54:56.353Z,32.90
2019-06-26T13:57:23.614Z,32.90
2019-06-26T13:59:52.008Z,32.80
2019-06-26T14:02:20.545Z,32.80
2019-06-26T14:04:48.953Z,32.80
2019-06-26T14:07:17.361Z,32.90
2019-06-26T14:09:45.768Z,33.00
2019-06-26T14:12:14.168Z,33.00
2019-06-26T14:14:56.874Z,33.00
2019-06-26T14:17:12.731Z,32.90
2019-06-26T14:19:41.151Z,32.80
2019-06-26T14:22:12.897Z,32.80
2019-06-26T14:24:39.686Z,32.70
2019-06-26T14:27:08.083Z,32.70
2019-06-26T14:29:36.498Z,32.70
2019-06-26T14:32:04.908Z,32.80
2019-06-26T14:34:33.328Z,32.80
2019-06-26T14:37:01.734Z,32.80
2019-06-26T14:39:30.146Z,32.80
2019-06-26T14:41:58.548Z,32.70
2019-06-26T14:44:26.956Z,32.80
2019-06-26T14:46:55.353Z,32.70
2019-06-26T14:49:23.772Z,32.60
2019-06-26T14:51:52.225Z,32.70
2019-06-26T14:54:20.684Z,32.70
2019-06-26T14:56:49.084Z,32.70
2019-06-26T14:59:17.488Z,32.60
2019-06-26T15:01:45.896Z,32.50
2019-06-26T15:06:42.386Z,32.60
2019-06-26T15:09:10.800Z,32.60
2019-06-26T15:11:39.192Z,32.60
2019-06-26T15:14:07.592Z,32.50
2019-06-26T15:16:35.992Z,32.40
2019-06-26T15:19:04.407Z,32.40
2019-06-26T15:21:32.828Z,32.40
2019-06-26T15:24:01.236Z,32.50
2019-06-26T15:26:29.736Z,32.50
2019-06-26T15:28:58.172Z,32.50
2019-06-26T15:31:26.574Z,32.60
2019-06-26T15:33:54.976Z,32.60
2019-06-26T15:36:23.377Z,32.60
2019-06-26T15:41:20.009Z,32.70
2019-06-26T15:43:48.465Z,32.60
2019-06-26T15:46:16.973Z,32.60
2019-06-26T15:48:45.441Z,32.50
2019-06-26T15:51:13.851Z,32.50
2019-06-26T15:53:42.289Z,32.60
2019-06-26T15:56:10.730Z,32.60
2019-06-26T15:58:39.131Z,32.60
2019-06-26T16:01:07.540Z,32.50
2019-06-26T16:03:35.930Z,32.60
2019-06-26T16:06:23.756Z,32.50
2019-06-26T16:08:52.166Z,32.50
2019-06-26T16:13:48.664Z,32.50
2019-06-26T16:16:17.406Z,32.40
2019-06-26T16:18:47.478Z,32.40
2019-06-26T16:21:15.953Z,32.40
2019-06-26T16:23:44.352Z,32.40
2019-06-26T16:26:12.760Z,32.40
2019-06-26T16:28:41.156Z,32.40
2019-06-26T16:31:09.565Z,32.40
2019-06-26T16:33:37.974Z,32.40
2019-06-26T16:36:06.384Z,32.40
2019-06-26T16:38:34.799Z,32.30
2019-06-26T16:41:05.077Z,32.40
2019-06-26T16:43:33.473Z,32.40
2019-06-26T16:46:01.922Z,32.40
2019-06-26T16:48:30.409Z,32.40
2019-06-26T16:50:58.812Z,32.30
2019-06-26T16:53:27.247Z,32.30
2019-06-26T16:55:55.673Z,32.30
2019-06-26T16:58:24.077Z,32.20
2019-06-26T17:00:53.256Z,32.10
2019-06-26T17:03:21.653Z,32.10
2019-06-26T17:05:50.106Z,32.00
2019-06-26T17:08:18.564Z,32.00
2019-06-26T17:10:46.987Z,32.00
2019-06-26T17:13:15.422Z,31.90
2019-06-26T17:15:43.993Z,31.90
2019-06-26T17:18:12.388Z,31.90
2019-06-26T17:20:40.806Z,31.90
2019-06-26T17:23:09.197Z,31.90
2019-06-26T17:25:37.604Z,31.90
2019-06-26T17:28:06.003Z,31.80
2019-06-26T17:30:34.480Z,31.80
2019-06-26T17:33:02.904Z,31.80
2019-06-26T17:35:31.340Z,31.80
2019-06-26T17:40:27.836Z,31.70
2019-06-26T17:43:11.370Z,31.70
2019-06-26T17:45:26.372Z,31.70
2019-06-26T17:47:54.767Z,31.60
2019-06-26T17:50:23.274Z,31.60
2019-06-26T17:52:51.668Z,31.50
2019-06-26T17:55:20.265Z,31.50
2019-06-26T17:57:48.712Z,31.50
2019-06-26T18:00:19.133Z,31.40
2019-06-26T18:05:15.703Z,31.20
2019-06-26T18:07:44.129Z,31.10
2019-06-26T18:10:12.666Z,31.00
2019-06-26T18:12:41.076Z,30.90
2019-06-26T18:15:09.748Z,30.80
2019-06-26T18:17:38.162Z,30.70
2019-06-26T18:20:07.315Z,30.60
2019-06-26T18:22:35.888Z,30.60
2019-06-26T18:25:05.924Z,30.50
2019-06-26T18:27:34.397Z,30.40
2019-06-26T18:30:03.280Z,30.30
2019-06-26T18:32:31.714Z,30.30
2019-06-26T18:35:00.135Z,30.20
2019-06-26T18:37:28.584Z,30.20
2019-06-26T18:39:56.993Z,30.20
2019-06-26T18:42:25.396Z,30.00
2019-06-26T18:44:53.796Z,30.00
2019-06-26T18:47:22.253Z,30.00
2019-06-26T18:49:50.652Z,29.90
2019-06-26T18:52:19.090Z,29.80
2019-06-26T18:54:47.480Z,29.80
2019-06-26T18:57:15.884Z,29.70
2019-06-26T18:59:44.328Z,29.70
2019-06-26T19:02:12.756Z,29.70
2019-06-26T19:04:41.262Z,29.60
2019-06-26T19:07:09.735Z,29.60
2019-06-26T19:09:38.132Z,29.60
2019-06-26T19:12:06.540Z,29.50
2019-06-26T19:14:34.972Z,29.40
2019-06-26T19:17:03.390Z,29.30
2019-06-26T19:19:31.787Z,29.30
2019-06-26T19:22:00.201Z,29.20
2019-06-26T19:26:56.713Z,29.00
2019-06-26T19:29:25.127Z,29.00
2019-06-26T19:31:53.516Z,28.90
2019-06-26T19:34:21.916Z,28.90
2019-06-26T19:36:50.827Z,28.80
2019-06-26T19:39:20.994Z,28.80
2019-06-26T19:44:17.844Z,28.60
2019-06-26T19:46:46.237Z,28.60
2019-06-26T19:49:14.710Z,28.50
2019-06-26T19:54:26.066Z,28.40
2019-06-26T19:56:41.355Z,28.40
2019-06-26T19:59:09.850Z,28.30
2019-06-26T20:01:38.267Z,28.30
2019-06-26T20:04:06.690Z,28.30
2019-06-26T20:06:35.178Z,28.20
2019-06-26T20:09:04.622Z,28.20
2019-06-26T20:11:33.045Z,28.10
2019-06-26T20:14:01.473Z,28.10
2019-06-26T20:18:57.992Z,27.90
2019-06-26T20:21:26.421Z,27.80
2019-06-26T20:23:54.827Z,27.70
2019-06-26T20:26:23.232Z,27.60
2019-06-26T20:28:51.708Z,27.50
2019-06-26T20:31:20.143Z,27.50
2019-06-26T20:33:48.562Z,27.50
2019-06-26T20:36:16.965Z,27.50
2019-06-26T20:38:45.404Z,27.50
2019-06-26T20:41:13.813Z,27.40
2019-06-26T20:43:42.257Z,27.40
2019-06-26T20:46:10.695Z,27.40
2019-06-26T20:48:39.104Z,27.40
2019-06-26T20:51:07.501Z,27.40
2019-06-26T20:53:35.941Z,27.30
2019-06-26T20:58:34.322Z,27.20
2019-06-26T21:01:02.790Z,27.20
2019-06-26T21:03:31.298Z,27.20
2019-06-26T21:05:59.837Z,27.10
2019-06-26T21:08:29.529Z,27.10
2019-06-26T21:10:58.127Z,27.00
2019-06-26T21:13:27.180Z,26.80
2019-06-26T21:15:55.587Z,26.80
2019-06-26T21:18:24.015Z,26.80
2019-06-26T21:20:52.421Z,26.80
2019-06-26T21:23:23.350Z,26.80
2019-06-26T21:25:50.948Z,26.80
2019-06-26T21:30:47.454Z,26.70
2019-06-26T21:33:15.847Z,26.60
2019-06-26T21:35:44.283Z,26.50
2019-06-26T21:38:12.681Z,26.50
2019-06-26T21:40:41.118Z,26.50
2019-06-26T21:45:37.642Z,26.40
2019-06-26T21:48:06.034Z,26.30
2019-06-26T21:50:34.469Z,26.20
2019-06-26T21:53:02.897Z,26.10
2019-06-26T21:55:34.749Z,26.00
2019-06-26T21:58:01.809Z,25.90
2019-06-26T22:00:31.973Z,25.90
2019-06-26T22:03:00.398Z,25.90
2019-06-26T22:05:28.975Z,25.80
2019-06-26T22:07:57.456Z,25.80
2019-06-26T22:10:25.854Z,25.70
2019-06-26T22:12:54.355Z,25.60
2019-06-26T22:15:22.765Z,25.70
2019-06-26T22:17:51.244Z,25.70
2019-06-26T22:20:19.738Z,25.70
2019-06-26T22:23:07.487Z,25.70
2019-06-26T22:25:49.883Z,25.70
2019-06-26T22:28:06.016Z,25.70
2019-06-26T22:30:34.436Z,25.70
2019-06-26T22:33:02.893Z,25.60
2019-06-26T22:35:34.414Z,25.50
2019-06-26T22:38:03.377Z,25.30
2019-06-26T22:40:31.833Z,25.30
2019-06-26T22:43:00.295Z,25.30
2019-06-26T22:45:28.706Z,25.20
2019-06-26T22:47:57.135Z,25.20
2019-06-26T22:50:25.570Z,25.10
2019-06-26T22:52:54.073Z,25.00
2019-06-26T22:55:22.511Z,24.80
2019-06-26T22:57:51.001Z,24.80
2019-06-26T23:00:20.176Z,24.70
2019-06-26T23:02:48.605Z,24.80
2019-06-26T23:05:17.034Z,24.80
2019-06-26T23:07:45.437Z,24.80
2019-06-26T23:10:33.275Z,24.80
2019-06-26T23:13:01.690Z,24.70
2019-06-26T23:15:32.377Z,24.60
2019-06-26T23:18:00.781Z,24.50
2019-06-26T23:20:29.217Z,24.50
2019-06-26T23:22:57.621Z,24.50
2019-06-26T23:25:26.030Z,24.50
2019-06-26T23:27:54.441Z,24.50
2019-06-26T23:30:22.874Z,24.40
2019-06-26T23:33:10.630Z,24.40
2019-06-26T23:35:39.078Z,24.40
2019-06-26T23:38:07.520Z,24.30
2019-06-26T23:40:35.965Z,24.20
2019-06-26T23:43:04.629Z,24.10
2019-06-26T23:45:33.038Z,24.10
2019-06-26T23:48:01.507Z,24.10
2019-06-26T23:50:29.910Z,24.00
2019-06-26T23:52:58.348Z,24.00
2019-06-26T23:55:26.765Z,23.90
2019-06-26T23:57:59.293Z,23.90
